Airfield :
LOGIN :

Register | Disclaimer

   EN    FR    IT 

 










Legend :    VFR   Marginal VFR   IFR   Intensive IFR   Very Intensive IFR
Visi :
Ceiling :
>= 8 km
>= 3000ft
5 to 8 km
1000 to 3000 ft
1500m to 5 km
500 to 1000 ft
800 to 1500m
200 to 500 ft
< 800m
< 200 ft
Symbols :   Thunderstorms  Fog  Heavy snow  Heavy precipitations  Wind > 20 kt
SIGMETs :     Misc.  Thunderstorms  Icing  Turbulence  Mountain Waves  Volcanic Ashes






- Airport Elevation : 32 ft
- IATA code : LKZ


EGUL - RAF Lakenheath

CURRENT METAR :
  • 300040Z AUTO 27009KT 9999 -RA OVC029 14/09 A2972 RMK AO2 RAE32RAB35E36RAB40 SLP068 FZRANO $

EXPIRED METARs :
  • 300032Z AUTO 26006KT 9999 OVC030 13/09 A2972 RMK AO2 RAE32 SLP068 FZRANO $
  • 292355Z AUTO 26009KT 9999 -RA BKN032 14/09 A2973 RMK AO2 RAE45RAB54 SLP071 P0000 60000 T01370091 10163 20133 402090131 58005 FZRANO $
  • 292345Z AUTO 26009KT 9999 SCT032 SCT041 14/09 A2973 RMK AO2 RAE45 SLP071 FZRANO $
  • 292255Z AUTO 27009KT 9999 -RA OVC049 14/09 A2973 RMK AO2 SLP071 P0000 T01390093 FZRANO $
  • 292155Z AUTO 27009KT 9999 -RA OVC085 14/10 A2974 RMK AO2 RAE24RAB44 SLP074 P0000 T01430099 FZRANO $
  • 292144Z AUTO 27011KT 9999 -RA OVC085 15/10 A2974 RMK AO2 RAE24RAB44 SLP074 FZRANO $
  • 292124Z AUTO 27007KT 9999 BKN080 15/10 A2974 RMK AO2 RAE24 SLP074 FZRANO $
  • 292055Z AUTO 27010KT 9999 -RA BKN085 15/10 A2974 RMK AO2 RAE1958RAB14E24RAB34E43RAB47 SLP074 P0000 60000 T01470101 53003 FZRANO $
  • 292043Z AUTO 26008KT 9999 OVC085 15/10 A2974 RMK AO2 RAE1958RAB14E24RAB34E43 SLP074 FZRANO $
  • 292014Z AUTO 26008KT 9999 -RA FEW065 BKN085 15/11 A2974 RMK AO2 RAE1958RAB14 SLP074 FZRANO $
  • 291958Z AUTO 26007KT 9999 SCT060 BKN085 15/11 A2974 RMK AO2 RAE58 SLP074 FZRANO $

TAF AMD TAF EGUL
Valid from the 29 at 20:00 until the 30 at 19:00 UTC


292050Z 2920/3019 27007KT 9999 SCT095 QNH2973INS
BECMG 3007/3008 30010G20KT 9000 -SHRA SCT025 BKN050 QNH2972INS
TEMPO 3008/3011 8000 -SHRA BKN008 BKN015
BECMG 3012/3013 32010G15KT 9999 NSW BKN015 BKN025 QNH2970INS TX17/3013Z TN10/3004Z LAST NO AMDS AFT 2920 NEXT 3005



MET'MAP, your aeronautical weather chart ! - Copyright ORBIFLY December 2007 - Disclaimer

ORBIFLY MET'MAP TEAM :

Programming & Development : Alexandra Zaïnal
Original concept : Baudouin d'Aumeries
Technical & hardware support : Manuel Goepfert
Assistance : Marc-Olivier Méhu




SOURCES & CREDITS :

   NOAA